Osasco, Brazil
Current Conditions -  °F | °C
As of 7:00 PM on Monday 20 Oct 2014 (Local Time) from SBMT Reporting Station
Broken Clouds Broken Clouds  
Wind Chill: 66°   Ceiling: 1400
Heat Index: 66°   Visibility: 6mi
Dew Point: 61°   Wind: 18mph
Humidity: 83%   Direction: 140°SE
Pressure: 30.09"   Gusts: NA
Location:  23.53°S, 46.78°W
Report Text: SBMT 202200Z 14016KT 9999 FEW011 BKN014 BKN090 19/16 Q1019
Loading
Personal Weather Stations






























Interactive Weather Map
Tropical Storm Tracking
New forecast layout! Learn more

10-Day Weather Forecast

Advertisements
Track Severe Weather on mobile